Time;durP1;ratioP1;P1;durP2;ratioP2;P2;SDS_P1;SDS_P2;PMS_P1;PMS_P2;Temp;Humidity;BMP_temperature;BMP_pressure;BME280_temperature;BME280_humidity;BME280_pressure;Samples;Min_cycle;Max_cycle;Signal;HPM_P1;HPM_P2
2023/01/19 00:01:32;;;;;;;10.63;8.05;;;4.60;72.30;;;;;;5023162;28;20037;-46
2023/01/19 00:03:59;;;;;;;14.13;9.35;;;4.60;72.40;;;;;;5030167;28;20065;-47
2023/01/19 00:06:28;;;;;;;13.00;8.77;;;4.60;72.60;;;;;;5032028;28;20112;-48
2023/01/19 00:08:55;;;;;;;14.32;9.35;;;4.60;72.70;;;;;;5033102;28;20050;-47
2023/01/19 00:11:27;;;;;;;12.18;9.75;;;4.60;72.70;;;;;;5032717;28;20044;-48
2023/01/19 00:13:53;;;;;;;13.75;9.85;;;4.50;72.80;;;;;;5028656;28;20072;-46
2023/01/19 00:16:22;;;;;;;14.88;9.75;;;4.50;72.90;;;;;;5032728;28;20045;-50
2023/01/19 00:18:50;;;;;;;13.07;9.15;;;4.50;72.90;;;;;;5014958;28;20049;-49
2023/01/19 00:21:17;;;;;;;11.07;9.32;;;4.50;72.90;;;;;;5029258;28;20430;-46
2023/01/19 00:23:46;;;;;;;13.05;9.23;;;4.50;72.90;;;;;;5026974;28;20061;-46
2023/01/19 00:26:17;;;;;;;12.50;10.23;;;4.50;73.00;;;;;;5031951;28;20107;-44
2023/01/19 00:28:44;;;;;;;13.25;9.35;;;4.50;73.10;;;;;;5032668;28;20060;-45
2023/01/19 00:31:11;;;;;;;12.35;9.27;;;4.50;73.10;;;;;;5032979;28;20621;-47
2023/01/19 00:33:38;;;;;;;12.75;9.35;;;4.60;73.20;;;;;;5028482;28;20076;-50
2023/01/19 00:36:08;;;;;;;10.70;8.85;;;4.50;73.10;;;;;;5032694;28;20055;-46
2023/01/19 00:38:35;;;;;;;15.30;9.38;;;4.60;73.20;;;;;;5032010;28;20037;-45
2023/01/19 00:41:02;;;;;;;12.57;9.82;;;4.60;73.20;;;;;;5032534;28;20037;-50
2023/01/19 00:43:31;;;;;;;13.27;10.20;;;4.60;73.30;;;;;;5026222;28;20120;-45
2023/01/19 00:45:59;;;;;;;13.45;9.90;;;4.60;73.30;;;;;;5032542;28;20042;-50
2023/01/19 00:48:25;;;;;;;12.55;8.75;;;4.60;73.30;;;;;;5031695;28;20405;-46
2023/01/19 00:50:52;;;;;;;11.38;8.73;;;4.60;73.20;;;;;;5031135;28;20045;-49
2023/01/19 00:53:19;;;;;;;14.13;9.68;;;4.60;73.20;;;;;;5030521;28;20502;-49
2023/01/19 00:55:47;;;;;;;13.45;9.60;;;4.60;73.30;;;;;;5032115;28;20084;-46
2023/01/19 00:58:19;;;;;;;14.25;8.90;;;4.60;73.30;;;;;;5031925;28;20124;-48
2023/01/19 01:00:47;;;;;;;13.18;9.75;;;4.60;73.30;;;;;;5004548;28;20038;-50
2023/01/19 01:03:18;;;;;;;15.15;10.10;;;4.60;73.20;;;;;;5028306;28;20068;-48
2023/01/19 01:05:44;;;;;;;12.48;9.02;;;4.60;73.20;;;;;;5031487;28;20056;-48
2023/01/19 01:08:14;;;;;;;13.10;9.43;;;4.60;73.10;;;;;;5030642;28;20059;-47
2023/01/19 01:10:43;;;;;;;11.63;8.88;;;4.60;73.00;;;;;;5026817;28;20064;-47
2023/01/19 01:13:10;;;;;;;13.65;8.90;;;4.60;73.00;;;;;;5030867;28;20125;-47
2023/01/19 01:15:53;;;;;;;12.40;8.85;;;4.70;73.10;;;;;;5024692;28;20045;-46
2023/01/19 01:18:21;;;;;;;13.93;9.77;;;4.60;73.10;;;;;;5017142;28;20506;-46
2023/01/19 01:20:50;;;;;;;13.63;10.57;;;4.60;73.10;;;;;;5028273;28;20064;-45
2023/01/19 01:23:21;;;;;;;13.50;9.20;;;4.60;73.20;;;;;;5031439;28;20038;-47
2023/01/19 01:25:54;;;;;;;13.90;9.25;;;4.60;73.30;;;;;;5025208;28;20060;-45
2023/01/19 01:28:20;;;;;;;14.50;10.18;;;4.60;73.30;;;;;;5012045;28;20042;-49
2023/01/19 01:30:53;;;;;;;15.55;9.82;;;4.60;73.40;;;;;;5027137;28;20045;-49
2023/01/19 01:33:21;;;;;;;14.25;9.15;;;4.70;73.40;;;;;;5031066;28;20476;-45
2023/01/19 01:36:07;;;;;;;11.77;8.98;;;4.70;73.40;;;;;;5031460;28;20045;-45
2023/01/19 01:38:41;;;;;;;18.80;9.80;;;4.70;73.20;;;;;;5019757;28;20095;-45
2023/01/19 01:41:10;;;;;;;12.00;9.30;;;4.70;73.10;;;;;;5031277;28;20042;-47
2023/01/19 01:43:57;;;;;;;13.20;9.88;;;4.70;73.00;;;;;;5030911;28;20461;-50
2023/01/19 01:46:32;;;;;;;14.95;9.75;;;4.70;73.00;;;;;;5026104;28;20045;-50
2023/01/19 01:49:14;;;;;;;16.05;9.55;;;4.70;72.90;;;;;;5030721;28;20048;-46
2023/01/19 01:51:48;;;;;;;14.35;10.65;;;4.70;73.00;;;;;;5031206;28;20041;-49
2023/01/19 01:54:29;;;;;;;12.07;9.32;;;4.70;72.90;;;;;;5028706;28;20050;-47
2023/01/19 01:57:00;;;;;;;14.25;9.45;;;4.70;72.90;;;;;;5025151;28;20395;-48
2023/01/19 01:59:37;;;;;;;13.63;10.25;;;4.70;72.90;;;;;;5029050;28;20462;-45
2023/01/19 02:05:10;;;;;;;11.55;8.60;;;4.70;72.90;;;;;;5024199;28;20092;-46
2023/01/19 02:13:16;;;;;;;11.05;8.35;;;4.70;72.70;;;;;;5025003;28;20125;-46
2023/01/19 02:15:45;;;;;;;14.57;9.13;;;4.70;72.80;;;;;;5022405;28;20144;-45
2023/01/19 02:18:14;;;;;;;17.77;9.65;;;4.70;72.80;;;;;;5026272;28;20034;-44
2023/01/19 02:20:58;;;;;;;11.00;8.18;;;4.60;72.80;;;;;;5023049;28;20049;-46
2023/01/19 02:23:36;;;;;;;13.27;9.60;;;4.60;73.00;;;;;;5012224;28;20132;-47
2023/01/19 02:26:08;;;;;;;11.07;7.85;;;4.60;72.90;;;;;;5027465;28;20056;-50
2023/01/19 02:28:39;;;;;;;12.10;8.18;;;4.60;72.90;;;;;;5030512;28;20437;-50
2023/01/19 02:31:05;;;;;;;11.32;8.05;;;4.60;72.90;;;;;;5030645;28;20041;-44
2023/01/19 02:33:35;;;;;;;11.90;9.00;;;4.60;72.90;;;;;;5029093;28;20121;-47
2023/01/19 02:36:07;;;;;;;12.48;8.32;;;4.60;73.00;;;;;;5027213;28;20128;-49
2023/01/19 02:38:35;;;;;;;14.77;9.10;;;4.60;73.00;;;;;;5029507;28;20413;-47
2023/01/19 02:41:05;;;;;;;14.05;9.30;;;4.60;73.10;;;;;;5030634;28;20730;-46
2023/01/19 02:43:32;;;;;;;11.07;8.23;;;4.60;73.20;;;;;;5025807;28;20120;-49
2023/01/19 02:45:58;;;;;;;15.25;9.20;;;4.60;73.20;;;;;;5024015;28;20384;-47
2023/01/19 02:48:28;;;;;;;13.50;8.60;;;4.60;73.20;;;;;;5029693;28;20747;-49
2023/01/19 02:51:09;;;;;;;11.80;8.57;;;4.70;73.30;;;;;;5030263;28;20453;-49
2023/01/19 02:54:05;;;;;;;13.05;9.02;;;4.70;73.30;;;;;;5024152;28;20069;-48
2023/01/19 02:56:58;;;;;;;10.27;7.68;;;4.70;73.30;;;;;;5027450;28;20057;-49
2023/01/19 02:59:56;;;;;;;11.70;7.97;;;4.80;73.30;;;;;;5024421;28;20091;-46
2023/01/19 03:02:57;;;;;;;12.20;8.65;;;4.80;73.20;;;;;;5023160;28;20443;-48
2023/01/19 03:06:07;;;;;;;13.48;8.48;;;4.90;73.20;;;;;;5027756;28;20034;-50
2023/01/19 03:09:00;;;;;;;13.52;8.05;;;4.90;73.10;;;;;;5029537;28;20092;-46
2023/01/19 03:11:37;;;;;;;13.52;9.10;;;4.90;73.00;;;;;;5028205;28;20104;-50
2023/01/19 03:14:12;;;;;;;13.07;8.32;;;5.00;73.00;;;;;;5025626;28;20129;-50
2023/01/19 03:16:50;;;;;;;12.30;8.65;;;5.00;72.90;;;;;;5029860;28;20055;-48
2023/01/19 03:19:33;;;;;;;10.73;8.15;;;5.00;72.80;;;;;;5029875;28;20552;-48
2023/01/19 03:22:05;;;;;;;12.80;7.85;;;5.00;72.80;;;;;;5020528;28;20395;-48
2023/01/19 03:24:39;;;;;;;14.82;8.98;;;5.10;72.80;;;;;;5029456;28;20521;-48
2023/01/19 03:27:16;;;;;;;12.82;8.27;;;5.10;72.70;;;;;;5029701;28;20038;-47
2023/01/19 03:29:53;;;;;;;11.10;8.98;;;5.10;72.70;;;;;;5023228;28;20470;-46
2023/01/19 03:32:29;;;;;;;11.98;9.05;;;5.10;72.60;;;;;;5024414;28;20045;-47
2023/01/19 03:35:01;;;;;;;12.30;7.80;;;5.20;72.60;;;;;;5030850;28;20116;-47
2023/01/19 03:37:32;;;;;;;12.60;8.50;;;5.20;72.60;;;;;;5033426;28;20041;-50
2023/01/19 03:40:01;;;;;;;11.82;8.00;;;5.20;72.60;;;;;;5031850;28;20668;-45
2023/01/19 03:42:28;;;;;;;14.32;8.80;;;5.20;72.50;;;;;;5032705;28;20045;-48
2023/01/19 03:45:00;;;;;;;13.55;8.43;;;5.20;72.50;;;;;;5033137;28;20087;-47
2023/01/19 03:47:29;;;;;;;16.10;9.50;;;5.30;72.40;;;;;;5033247;28;20065;-47
2023/01/19 03:50:03;;;;;;;14.93;8.88;;;5.30;72.40;;;;;;5029598;28;20037;-45
2023/01/19 03:52:33;;;;;;;16.17;10.20;;;5.30;72.30;;;;;;5032800;28;20045;-47
2023/01/19 03:55:03;;;;;;;16.42;9.50;;;5.30;72.30;;;;;;5030441;28;20077;-48
2023/01/19 03:57:31;;;;;;;14.30;9.20;;;5.30;72.20;;;;;;5031584;28;20481;-47
2023/01/19 03:59:57;;;;;;;14.55;9.20;;;5.30;72.30;;;;;;5033248;28;20048;-45
2023/01/19 04:02:24;;;;;;;13.43;9.65;;;5.30;72.30;;;;;;5015260;28;20493;-47
2023/01/19 04:04:53;;;;;;;16.70;9.52;;;5.30;72.90;;;;;;5029544;28;20037;-49
2023/01/19 04:07:23;;;;;;;14.32;9.60;;;5.40;72.40;;;;;;5015056;28;20454;-46
2023/01/19 04:09:52;;;;;;;12.35;9.07;;;5.40;72.40;;;;;;5029267;28;20040;-47
2023/01/19 04:12:18;;;;;;;17.25;10.05;;;5.40;72.40;;;;;;5032779;28;20065;-45
2023/01/19 04:14:46;;;;;;;15.32;9.50;;;5.40;72.40;;;;;;5032602;28;20038;-45
2023/01/19 04:17:17;;;;;;;16.98;10.05;;;5.30;72.30;;;;;;5058553;22;20045;-50
2023/01/19 04:19:49;;;;;;;14.98;9.70;;;5.30;72.30;;;;;;5064762;28;20047;-47
2023/01/19 04:22:17;;;;;;;14.55;9.88;;;5.40;72.40;;;;;;5072675;28;20037;-50
2023/01/19 04:24:44;;;;;;;15.65;10.18;;;5.30;72.40;;;;;;5064110;28;20039;-46
2023/01/19 04:27:15;;;;;;;19.77;10.30;;;5.30;72.40;;;;;;5062964;28;20060;-48
2023/01/19 04:29:42;;;;;;;16.40;11.02;;;5.30;72.40;;;;;;5051831;28;20416;-50
2023/01/19 04:32:11;;;;;;;15.00;10.18;;;5.30;72.10;;;;;;5052734;28;20045;-50
2023/01/19 04:34:38;;;;;;;16.48;10.15;;;5.30;72.00;;;;;;5017567;28;20076;-52
2023/01/19 04:37:07;;;;;;;16.63;10.38;;;5.20;71.90;;;;;;5055950;28;20037;-49
2023/01/19 04:39:35;;;;;;;16.33;9.82;;;5.20;72.00;;;;;;5052020;28;20051;-49
2023/01/19 04:42:01;;;;;;;17.02;10.23;;;5.10;72.20;;;;;;5045938;28;20551;-52
2023/01/19 04:44:28;;;;;;;16.15;10.85;;;5.00;72.10;;;;;;5052464;28;20507;-52
2023/01/19 04:46:57;;;;;;;16.95;10.45;;;4.90;72.30;;;;;;5052825;28;20090;-52
2023/01/19 04:49:23;;;;;;;15.20;10.15;;;4.80;72.50;;;;;;5051336;28;20528;-49
2023/01/19 04:51:53;;;;;;;15.35;9.63;;;4.80;72.70;;;;;;5052320;28;20119;-52
2023/01/19 04:54:23;;;;;;;16.83;11.30;;;4.70;73.00;;;;;;5051757;28;20098;-49
2023/01/19 04:56:55;;;;;;;16.92;9.77;;;4.70;73.30;;;;;;5056524;28;20037;-52
2023/01/19 04:59:24;;;;;;;17.33;11.00;;;4.60;73.50;;;;;;5051641;28;20048;-52
2023/01/19 05:01:51;;;;;;;13.52;9.38;;;4.50;73.60;;;;;;5052002;28;20037;-51
2023/01/19 05:04:17;;;;;;;13.82;8.52;;;4.50;74.00;;;;;;5055191;28;20541;-51
2023/01/19 05:06:44;;;;;;;14.20;9.55;;;4.40;74.10;;;;;;5050176;28;20056;-53
2023/01/19 05:09:18;;;;;;;16.73;9.05;;;4.40;74.30;;;;;;5051578;28;20033;-49
2023/01/19 05:11:47;;;;;;;13.98;9.35;;;4.40;74.50;;;;;;5052439;28;20409;-52
2023/01/19 05:14:13;;;;;;;13.68;8.77;;;4.30;74.50;;;;;;5053617;28;20048;-53
2023/01/19 05:16:51;;;;;;;12.23;8.52;;;4.30;74.80;;;;;;5050294;28;20047;-52
2023/01/19 05:19:18;;;;;;;13.00;7.10;;;4.30;75.00;;;;;;5048790;28;20065;-52
2023/01/19 05:21:47;;;;;;;9.50;7.20;;;4.30;74.90;;;;;;5042064;28;20060;-52
2023/01/19 05:24:14;;;;;;;10.68;6.95;;;4.30;75.10;;;;;;5050677;28;20067;-51
2023/01/19 05:26:41;;;;;;;10.07;6.65;;;4.20;75.10;;;;;;5051460;28;20037;-52
2023/01/19 05:29:09;;;;;;;10.13;6.88;;;4.20;75.20;;;;;;5044530;28;20041;-54
2023/01/19 05:31:38;;;;;;;9.98;7.32;;;4.20;75.30;;;;;;5042508;28;20045;-53
2023/01/19 05:34:05;;;;;;;13.73;9.23;;;4.20;75.30;;;;;;5048023;28;20044;-54
2023/01/19 05:36:33;;;;;;;12.70;8.82;;;4.20;75.50;;;;;;5051043;28;20050;-53
2023/01/19 05:39:00;;;;;;;12.80;9.57;;;4.10;75.50;;;;;;5051064;28;20056;-54
2023/01/19 05:41:30;;;;;;;15.80;11.77;;;4.10;75.70;;;;;;5051600;28;20033;-55
2023/01/19 05:43:59;;;;;;;16.67;12.18;;;4.10;75.80;;;;;;5051758;28;20047;-55
2023/01/19 05:46:26;;;;;;;12.00;8.40;;;4.10;76.00;;;;;;5050932;28;20037;-55
2023/01/19 05:48:55;;;;;;;13.48;8.82;;;4.10;76.00;;;;;;5050928;28;20059;-55
2023/01/19 05:51:22;;;;;;;10.98;8.23;;;4.10;76.10;;;;;;5053382;28;20155;-56
2023/01/19 05:53:49;;;;;;;10.25;7.68;;;4.10;76.20;;;;;;5052964;28;20497;-55
2023/01/19 05:56:15;;;;;;;11.35;8.57;;;4.10;76.30;;;;;;5054843;28;20493;-53
2023/01/19 05:58:42;;;;;;;11.55;7.80;;;4.10;76.30;;;;;;5032238;28;20037;-53
2023/01/19 06:01:09;;;;;;;10.63;7.10;;;4.10;76.40;;;;;;5051913;28;20037;-56
2023/01/19 06:03:38;;;;;;;11.25;7.47;;;4.10;76.50;;;;;;5037646;28;20540;-57
2023/01/19 06:06:10;;;;;;;10.20;7.60;;;4.10;76.60;;;;;;5050352;28;20116;-57
2023/01/19 06:08:40;;;;;;;9.27;6.85;;;4.10;76.60;;;;;;5051659;28;20044;-57
2023/01/19 06:11:08;;;;;;;9.15;6.80;;;4.10;76.80;;;;;;5045788;28;20397;-56
2023/01/19 06:13:38;;;;;;;9.23;6.53;;;4.10;76.70;;;;;;5047967;28;20071;-57
2023/01/19 06:16:15;;;;;;;9.10;6.45;;;4.10;76.80;;;;;;5042989;28;20045;-58
2023/01/19 06:18:41;;;;;;;10.02;6.95;;;4.10;76.80;;;;;;5024271;28;20440;-58
2023/01/19 06:21:09;;;;;;;10.27;7.32;;;4.10;76.90;;;;;;5048453;28;20040;-57
2023/01/19 06:23:35;;;;;;;12.50;8.63;;;4.10;77.00;;;;;;5046847;28;20036;-57
2023/01/19 06:26:05;;;;;;;13.32;8.77;;;4.10;77.00;;;;;;5048548;28;20091;-57
2023/01/19 06:28:31;;;;;;;10.55;7.55;;;4.10;77.10;;;;;;5044344;28;20046;-56
2023/01/19 06:30:58;;;;;;;11.13;7.75;;;4.10;77.10;;;;;;5041433;28;20076;-56
2023/01/19 06:33:26;;;;;;;11.32;8.23;;;4.10;77.20;;;;;;5035937;28;20120;-54
2023/01/19 06:35:54;;;;;;;12.07;8.32;;;4.10;77.20;;;;;;5042696;28;20049;-55
2023/01/19 06:38:21;;;;;;;10.77;8.35;;;4.10;77.30;;;;;;5036064;28;20572;-55
2023/01/19 06:40:58;;;;;;;11.88;7.70;;;4.10;77.20;;;;;;5046567;28;20033;-52
2023/01/19 06:43:28;;;;;;;12.25;8.13;;;4.10;77.30;;;;;;5047271;28;20083;-53
2023/01/19 06:45:59;;;;;;;12.32;8.82;;;4.10;77.30;;;;;;5045108;28;20482;-55
2023/01/19 06:48:26;;;;;;;14.60;9.27;;;4.20;77.40;;;;;;5036303;28;20491;-54
2023/01/19 06:50:52;;;;;;;14.40;9.45;;;4.20;77.40;;;;;;5038444;28;20079;-55
2023/01/19 06:53:21;;;;;;;13.55;8.85;;;4.20;77.50;;;;;;5049063;28;20037;-54
2023/01/19 06:55:47;;;;;;;13.30;8.65;;;4.20;77.50;;;;;;5034793;28;20041;-52
2023/01/19 06:58:15;;;;;;;11.45;8.68;;;4.20;77.50;;;;;;5045892;28;20041;-55
2023/01/19 07:00:41;;;;;;;14.20;8.52;;;4.20;77.60;;;;;;5049331;28;20060;-54
2023/01/19 07:03:19;;;;;;;13.95;8.95;;;4.20;77.60;;;;;;5046428;28;20041;-53
2023/01/19 07:05:50;;;;;;;14.57;8.77;;;4.20;77.70;;;;;;5037704;28;20040;-55
2023/01/19 07:08:16;;;;;;;12.52;7.35;;;4.20;77.70;;;;;;5044917;28;20394;-52
2023/01/19 07:10:43;;;;;;;12.07;8.18;;;4.20;77.60;;;;;;5051137;28;20123;-54
2023/01/19 07:13:31;;;;;;;13.75;9.13;;;4.20;77.60;;;;;;5051285;28;20041;-55
2023/01/19 07:15:58;;;;;;;14.50;10.05;;;4.20;77.60;;;;;;5048061;28;20051;-55
2023/01/19 07:18:27;;;;;;;12.57;8.63;;;4.20;77.60;;;;;;5054362;28;20455;-54
2023/01/19 07:20:56;;;;;;;12.70;9.60;;;4.20;77.70;;;;;;5051382;28;20049;-52
2023/01/19 07:23:23;;;;;;;12.35;8.68;;;4.20;77.70;;;;;;5051142;28;20041;-53
2023/01/19 07:25:50;;;;;;;16.92;10.98;;;4.30;77.70;;;;;;5051628;28;20040;-54
2023/01/19 07:28:16;;;;;;;17.05;9.77;;;4.30;78.30;;;;;;5053211;28;20059;-52
2023/01/19 07:30:44;;;;;;;13.90;9.85;;;4.30;77.70;;;;;;5050392;28;20572;-50
2023/01/19 07:33:11;;;;;;;16.60;10.90;;;4.30;77.80;;;;;;5032975;28;20094;-53
2023/01/19 07:35:38;;;;;;;16.23;9.50;;;4.30;77.90;;;;;;5052937;28;20163;-53
2023/01/19 07:38:05;;;;;;;13.85;9.77;;;4.30;77.90;;;;;;5051617;28;20037;-54
2023/01/19 07:40:32;;;;;;;13.02;9.85;;;4.30;77.90;;;;;;5050694;28;20094;-53
2023/01/19 07:42:59;;;;;;;17.45;11.18;;;4.30;77.90;;;;;;5052312;28;20043;-52
2023/01/19 07:45:26;;;;;;;16.63;10.95;;;4.30;78.00;;;;;;5044350;28;20042;-53
2023/01/19 07:47:53;;;;;;;15.93;10.07;;;4.30;78.00;;;;;;5025889;28;20091;-52
2023/01/19 07:50:28;;;;;;;17.02;11.27;;;4.40;78.00;;;;;;5052244;28;20531;-52
2023/01/19 07:52:55;;;;;;;14.52;10.02;;;4.40;78.10;;;;;;5052099;28;20044;-52
2023/01/19 07:55:23;;;;;;;17.02;10.82;;;4.40;77.90;;;;;;5055279;28;20041;-52
2023/01/19 07:57:50;;;;;;;18.33;11.73;;;4.40;77.80;;;;;;5053223;28;20045;-53
2023/01/19 08:00:23;;;;;;;19.85;12.00;;;4.40;77.70;;;;;;5052785;28;20112;-53
2023/01/19 08:02:51;;;;;;;18.00;12.02;;;4.40;77.70;;;;;;5042862;28;20120;-52
2023/01/19 08:05:19;;;;;;;15.13;11.20;;;4.40;77.80;;;;;;5051509;28;20501;-53
2023/01/19 08:07:47;;;;;;;19.08;13.50;;;4.40;77.90;;;;;;5049296;28;20045;-52
2023/01/19 08:10:15;;;;;;;20.42;13.73;;;4.40;78.00;;;;;;5051602;28;20041;-51
2023/01/19 08:12:41;;;;;;;19.63;13.60;;;4.40;78.10;;;;;;5050553;28;20516;-52
2023/01/19 08:15:13;;;;;;;21.38;13.35;;;4.40;78.20;;;;;;5051024;28;20123;-52
2023/01/19 08:17:40;;;;;;;27.52;14.75;;;4.40;78.30;;;;;;5050530;28;20394;-52
2023/01/19 08:20:08;;;;;;;21.75;14.90;;;4.40;78.20;;;;;;5051037;28;20410;-52
2023/01/19 08:22:35;;;;;;;22.95;14.88;;;4.50;78.40;;;;;;5050089;28;20040;-52
2023/01/19 08:25:02;;;;;;;22.77;15.13;;;4.50;78.40;;;;;;5050456;28;20033;-49
2023/01/19 08:27:31;;;;;;;23.05;14.10;;;4.50;78.40;;;;;;5052966;28;20134;-48
2023/01/19 08:29:58;;;;;;;26.95;15.70;;;4.50;79.00;;;;;;5049754;28;20044;-52
2023/01/19 08:32:25;;;;;;;24.90;16.05;;;4.60;78.40;;;;;;5052383;28;20047;-52
2023/01/19 08:34:51;;;;;;;22.10;15.35;;;4.60;78.40;;;;;;5050584;28;20117;-52
2023/01/19 08:37:18;;;;;;;23.60;15.32;;;4.60;78.10;;;;;;5050190;28;20043;-49
2023/01/19 08:39:45;;;;;;;22.95;14.63;;;4.60;77.70;;;;;;5051035;28;20036;-51
2023/01/19 08:42:11;;;;;;;26.77;15.45;;;4.60;77.60;;;;;;5050788;28;20069;-49
2023/01/19 08:44:38;;;;;;;21.02;13.77;;;4.60;77.50;;;;;;5049435;28;20048;-52
2023/01/19 08:47:16;;;;;;;22.52;12.90;;;4.60;77.70;;;;;;5049313;28;20061;-51
2023/01/19 08:49:42;;;;;;;25.50;15.55;;;4.60;77.70;;;;;;5026050;28;20045;-52
2023/01/19 08:52:09;;;;;;;25.50;15.00;;;4.50;77.60;;;;;;5044926;28;20045;-52
2023/01/19 08:54:38;;;;;;;25.60;16.55;;;4.50;77.90;;;;;;5035260;28;20060;-52
2023/01/19 08:57:05;;;;;;;27.05;15.77;;;4.50;78.10;;;;;;5046204;28;20132;-49
2023/01/19 08:59:35;;;;;;;27.17;15.88;;;4.50;78.20;;;;;;5049640;28;20051;-50
2023/01/19 09:02:01;;;;;;;30.80;16.65;;;4.50;79.00;;;;;;5050762;28;20037;-50
2023/01/19 09:04:28;;;;;;;30.02;17.35;;;4.50;78.40;;;;;;5049787;28;20049;-48
2023/01/19 09:06:57;;;;;;;30.65;18.45;;;4.60;78.60;;;;;;5051992;28;20044;-52
2023/01/19 09:09:26;;;;;;;26.85;15.77;;;4.60;78.60;;;;;;5050744;28;20033;-51
2023/01/19 09:11:54;;;;;;;27.38;16.85;;;4.60;78.50;;;;;;5039455;28;20048;-50
2023/01/19 09:14:21;;;;;;;30.73;17.17;;;4.60;78.50;;;;;;5040007;28;20068;-48
2023/01/19 09:16:47;;;;;;;30.70;17.63;;;4.70;78.70;;;;;;5051857;28;20048;-49
2023/01/19 09:19:14;;;;;;;29.33;16.50;;;4.70;78.70;;;;;;5035772;28;20107;-48
2023/01/19 09:21:40;;;;;;;36.03;16.77;;;4.70;78.70;;;;;;5044090;28;20041;-49
2023/01/19 09:24:08;;;;;;;29.70;16.38;;;4.70;79.20;;;;;;5044303;28;20043;-52
2023/01/19 09:26:35;;;;;;;34.90;18.25;;;4.80;78.60;;;;;;5051831;28;20036;-49
2023/01/19 09:29:02;;;;;;;28.90;17.33;;;4.80;78.70;;;;;;5045741;28;20087;-52
2023/01/19 09:31:28;;;;;;;34.35;17.67;;;4.80;78.70;;;;;;5046514;28;20124;-52
2023/01/19 09:33:55;;;;;;;33.63;18.42;;;4.80;78.70;;;;;;5038159;28;20056;-48
2023/01/19 09:36:22;;;;;;;31.20;17.30;;;4.90;78.80;;;;;;5044301;28;20041;-51
2023/01/19 09:38:48;;;;;;;30.17;17.45;;;4.90;78.90;;;;;;5043105;28;20120;-48
2023/01/19 09:41:20;;;;;;;31.38;17.95;;;4.90;79.10;;;;;;5051184;28;20043;-52
2023/01/19 09:43:55;;;;;;;28.65;17.25;;;5.00;79.10;;;;;;5041565;28;20041;-50
2023/01/19 09:46:41;;;;;;;31.67;17.02;;;5.00;79.30;;;;;;5050478;28;20425;-52
2023/01/19 09:49:20;;;;;;;31.77;17.30;;;5.10;79.60;;;;;;5049658;28;20044;-52
2023/01/19 09:51:49;;;;;;;33.08;17.60;;;5.20;79.20;;;;;;5042163;28;20123;-51
2023/01/19 09:54:28;;;;;;;26.75;16.92;;;5.20;79.00;;;;;;5036322;28;20040;-50
2023/01/19 09:56:55;;;;;;;31.45;17.25;;;5.20;78.70;;;;;;5037806;28;20151;-51
2023/01/19 09:59:28;;;;;;;29.67;18.17;;;5.30;78.70;;;;;;5024380;28;20039;-52
2023/01/19 10:02:09;;;;;;;27.88;17.02;;;5.30;79.20;;;;;;5044262;28;20029;-51
2023/01/19 10:04:48;;;;;;;29.33;16.55;;;5.30;78.70;;;;;;5034616;28;20079;-51
2023/01/19 10:07:38;;;;;;;29.02;18.00;;;5.30;79.10;;;;;;5044256;28;20051;-51
2023/01/19 10:10:24;;;;;;;31.70;17.25;;;5.40;79.10;;;;;;5040739;28;20048;-52
2023/01/19 10:13:13;;;;;;;29.40;16.60;;;5.40;79.20;;;;;;5039456;28;20037;-49
2023/01/19 10:15:45;;;;;;;27.85;16.58;;;5.50;79.00;;;;;;5035854;28;20049;-48
2023/01/19 10:18:25;;;;;;;30.42;16.95;;;5.50;79.10;;;;;;5023718;28;20234;-52
2023/01/19 10:20:56;;;;;;;26.05;16.17;;;5.60;79.00;;;;;;5045120;28;20041;-51
2023/01/19 10:23:43;;;;;;;26.80;17.92;;;5.60;78.90;;;;;;5000583;28;20127;-47
2023/01/19 10:26:16;;;;;;;27.58;16.77;;;5.60;79.00;;;;;;5004912;28;20476;-46
2023/01/19 10:28:46;;;;;;;26.73;16.48;;;5.70;79.30;;;;;;4989633;28;20038;-48
2023/01/19 10:31:20;;;;;;;32.50;17.75;;;5.70;79.30;;;;;;5010183;28;20692;-46
2023/01/19 10:33:49;;;;;;;26.45;15.77;;;5.80;79.20;;;;;;4995387;28;20069;-45
2023/01/19 10:36:19;;;;;;;29.92;16.42;;;5.80;78.70;;;;;;5009327;28;20401;-47
2023/01/19 10:38:46;;;;;;;28.48;17.00;;;5.80;78.60;;;;;;4993908;28;20514;-46
2023/01/19 10:41:40;;;;;;;25.42;16.60;;;5.90;78.80;;;;;;5004061;28;20041;-46
2023/01/19 10:44:09;;;;;;;24.83;16.10;;;5.90;79.10;;;;;;5006715;28;20042;-47
2023/01/19 10:46:44;;;;;;;31.02;17.25;;;5.90;78.60;;;;;;5010302;28;20057;-50
2023/01/19 10:49:23;;;;;;;27.25;15.70;;;6.00;78.50;;;;;;5008972;28;20477;-46
2023/01/19 10:51:50;;;;;;;25.52;15.95;;;6.00;78.50;;;;;;5004727;28;20030;-48
2023/01/19 10:54:19;;;;;;;26.25;15.38;;;6.00;78.30;;;;;;5008166;28;20104;-47
2023/01/19 10:56:58;;;;;;;28.38;17.40;;;6.00;78.40;;;;;;5006622;28;20049;-47
2023/01/19 10:59:51;;;;;;;29.15;15.43;;;6.00;78.30;;;;;;5004566;28;20037;-49
2023/01/19 11:02:26;;;;;;;30.17;15.38;;;6.00;78.30;;;;;;4994716;28;20104;-48
2023/01/19 11:05:17;;;;;;;25.38;15.35;;;6.00;77.90;;;;;;5000502;28;20037;-46
2023/01/19 11:07:47;;;;;;;30.98;16.25;;;6.00;77.60;;;;;;5001180;28;20124;-46
2023/01/19 11:10:16;;;;;;;30.95;16.58;;;6.00;77.70;;;;;;5008352;28;20116;-47
2023/01/19 11:12:52;;;;;;;27.27;16.83;;;6.00;77.70;;;;;;5008530;28;20137;-51
2023/01/19 11:15:23;;;;;;;27.00;15.98;;;6.00;77.60;;;;;;5000188;28;20046;-50
2023/01/19 11:17:53;;;;;;;25.70;16.08;;;5.90;77.60;;;;;;5007866;28;20061;-47
2023/01/19 11:20:31;;;;;;;29.13;16.17;;;5.90;77.60;;;;;;4998491;28;20054;-50
2023/01/19 11:23:16;;;;;;;24.60;15.45;;;5.90;77.80;;;;;;5005186;28;20040;-49
2023/01/19 11:25:48;;;;;;;30.63;14.98;;;5.90;78.10;;;;;;5006338;28;20802;-46
2023/01/19 11:28:25;;;;;;;26.40;15.32;;;5.90;78.30;;;;;;5005277;28;20046;-49
2023/01/19 11:31:13;;;;;;;27.40;16.15;;;5.90;78.50;;;;;;5005307;28;20042;-46
2023/01/19 11:33:44;;;;;;;23.05;14.65;;;6.00;78.40;;;;;;5006417;28;20050;-47
2023/01/19 11:36:22;;;;;;;25.65;15.80;;;6.00;78.20;;;;;;5007272;28;20379;-49
2023/01/19 11:39:20;;;;;;;21.58;14.63;;;6.00;78.20;;;;;;5003919;28;20046;-47
2023/01/19 11:41:51;;;;;;;26.67;13.82;;;6.00;78.40;;;;;;4999498;28;20053;-48
2023/01/19 11:44:25;;;;;;;33.67;15.07;;;6.00;78.00;;;;;;5004968;28;20069;-51
2023/01/19 11:47:08;;;;;;;25.67;14.20;;;6.00;77.90;;;;;;5004050;28;20041;-50
2023/01/19 11:49:38;;;;;;;22.30;14.80;;;6.00;77.80;;;;;;5006897;28;20045;-46
2023/01/19 11:52:30;;;;;;;24.65;15.05;;;6.00;77.60;;;;;;5007524;28;20056;-48
2023/01/19 11:55:02;;;;;;;23.90;14.48;;;6.00;77.50;;;;;;5003287;28;20121;-47
2023/01/19 11:57:29;;;;;;;22.20;14.18;;;6.00;77.30;;;;;;5008611;28;20108;-46
2023/01/19 12:00:02;;;;;;;26.33;15.55;;;6.00;77.20;;;;;;5010765;28;20052;-49
2023/01/19 12:02:43;;;;;;;26.80;15.00;;;5.90;77.20;;;;;;5011714;28;20482;-46
2023/01/19 12:05:15;;;;;;;20.50;13.93;;;5.90;77.30;;;;;;5011808;28;20494;-49
2023/01/19 12:07:44;;;;;;;25.90;15.63;;;5.90;77.60;;;;;;5003432;28;20049;-46
2023/01/19 12:10:27;;;;;;;26.13;15.55;;;5.90;78.10;;;;;;5011798;28;20418;-47
2023/01/19 12:12:55;;;;;;;24.50;15.00;;;5.90;78.50;;;;;;5010834;28;20125;-48
2023/01/19 12:15:37;;;;;;;25.85;14.32;;;6.00;78.20;;;;;;5008222;28;20050;-49
2023/01/19 12:18:11;;;;;;;24.42;13.95;;;6.00;78.10;;;;;;5010262;28;20080;-48
2023/01/19 12:20:45;;;;;;;24.55;15.65;;;6.00;77.90;;;;;;5011563;28;20050;-50
2023/01/19 12:23:46;;;;;;;25.65;16.13;;;6.00;77.90;;;;;;5010574;28;20038;-45
2023/01/19 12:26:34;;;;;;;29.45;15.85;;;6.10;78.40;;;;;;4999859;28;20034;-47
2023/01/19 12:29:12;;;;;;;27.67;16.45;;;6.10;78.40;;;;;;5005324;28;20065;-47
2023/01/19 12:31:41;;;;;;;26.30;16.85;;;6.20;78.40;;;;;;5011021;28;20631;-51
2023/01/19 12:34:30;;;;;;;23.75;15.88;;;6.20;78.60;;;;;;5007994;28;20474;-49
2023/01/19 12:37:02;;;;;;;22.83;16.02;;;6.20;78.70;;;;;;5004931;28;20431;-51
2023/01/19 12:39:29;;;;;;;;;;;6.30;78.60;;;;;;5011406;28;20199;-46
2023/01/19 12:42:15;;;;;;;26.75;15.77;;;6.40;79.10;;;;;;5011389;28;19983;-48
2023/01/19 12:44:45;;;;;;;27.13;15.93;;;6.40;78.80;;;;;;5004229;28;20077;-49
2023/01/19 12:47:12;;;;;;;29.25;16.33;;;6.50;78.90;;;;;;5011601;28;20037;-50
2023/01/19 12:49:41;;;;;;;32.65;17.63;;;6.60;79.10;;;;;;5012185;28;20046;-50
2023/01/19 12:52:27;;;;;;;29.85;18.38;;;6.70;79.10;;;;;;5004258;28;20451;-50
2023/01/19 12:54:59;;;;;;;26.70;15.48;;;6.70;79.00;;;;;;5005890;28;20137;-45
2023/01/19 12:57:34;;;;;;;30.55;15.85;;;6.80;78.60;;;;;;5010788;28;20046;-47
2023/01/19 13:00:05;;;;;;;27.15;15.07;;;6.90;78.30;;;;;;5010824;28;20041;-46
2023/01/19 13:02:41;;;;;;;25.88;15.73;;;6.90;78.00;;;;;;4990987;28;20046;-48
2023/01/19 13:05:26;;;;;;;31.55;14.88;;;6.90;77.30;;;;;;4976567;28;20038;-48
2023/01/19 13:08:03;;;;;;;23.42;14.38;;;6.90;76.90;;;;;;5003784;28;20072;-48
2023/01/19 13:10:52;;;;;;;23.63;14.15;;;6.90;76.60;;;;;;5005528;28;20038;-47
2023/01/19 13:13:23;;;;;;;20.92;13.43;;;6.90;76.70;;;;;;5002661;28;20084;-51
2023/01/19 13:15:50;;;;;;;24.05;15.35;;;6.80;76.40;;;;;;5011330;28;20512;-46